createdAt,value
2023-05-05T00:00:00.504Z,3.40
2023-05-05T00:02:27.427Z,4.20
2023-05-05T00:04:54.506Z,3.40
2023-05-05T00:07:21.417Z,3.70
2023-05-05T00:09:48.260Z,3.80
2023-05-05T00:12:15.105Z,3.60
2023-05-05T00:14:41.957Z,4.00
2023-05-05T00:17:09.057Z,4.40
2023-05-05T00:19:36.038Z,3.80
2023-05-05T00:22:02.880Z,4.00
2023-05-05T00:24:29.740Z,3.10
2023-05-05T00:26:56.767Z,3.70
2023-05-05T00:29:23.661Z,3.60
2023-05-05T00:31:52.095Z,3.10
2023-05-05T00:34:19.967Z,3.60
2023-05-05T00:36:47.007Z,2.80
2023-05-05T00:39:14.469Z,3.00
2023-05-05T00:41:41.927Z,3.00
2023-05-05T00:44:08.677Z,3.30
2023-05-05T00:46:35.863Z,3.30
2023-05-05T00:49:02.822Z,3.20
2023-05-05T00:51:29.912Z,2.90
2023-05-05T00:53:57.179Z,3.60
2023-05-05T00:56:27.691Z,2.60
2023-05-05T00:58:54.499Z,3.30
2023-05-05T01:01:21.416Z,2.50
2023-05-05T01:03:48.285Z,3.00
2023-05-05T01:06:34.729Z,3.70
2023-05-05T01:09:02.592Z,3.20
2023-05-05T01:11:29.429Z,3.20
2023-05-05T01:14:06.307Z,3.10
2023-05-05T01:16:34.448Z,2.80
2023-05-05T01:19:20.881Z,3.00
2023-05-05T01:21:50.183Z,3.20
2023-05-05T01:24:17.241Z,2.70
2023-05-05T01:27:04.955Z,3.10
2023-05-05T01:29:38.734Z,2.90
2023-05-05T01:32:11.084Z,2.80
2023-05-05T01:34:42.282Z,2.40
2023-05-05T01:37:29.603Z,2.30
2023-05-05T01:39:59.104Z,2.30
2023-05-05T01:42:26.982Z,2.30
2023-05-05T01:44:54.647Z,2.30
2023-05-05T01:47:22.599Z,2.30
2023-05-05T01:49:50.569Z,2.10
2023-05-05T01:52:18.260Z,2.00
2023-05-05T01:54:46.923Z,2.40
2023-05-05T01:57:14.728Z,2.80
2023-05-05T01:59:42.035Z,2.50
2023-05-05T02:02:10.754Z,2.50
2023-05-05T02:04:41.470Z,2.90
2023-05-05T02:07:09.206Z,2.40
2023-05-05T02:09:36.574Z,3.00
2023-05-05T02:12:04.246Z,2.70
2023-05-05T02:14:32.306Z,2.30
2023-05-05T02:16:59.771Z,2.20
2023-05-05T02:19:32.139Z,2.90
2023-05-05T02:21:59.201Z,2.60
2023-05-05T02:24:26.848Z,2.40
2023-05-05T02:26:54.920Z,2.40
2023-05-05T02:29:28.839Z,2.30
2023-05-05T02:31:59.402Z,2.40
2023-05-05T02:34:27.547Z,2.70
2023-05-05T02:36:57.350Z,2.60
2023-05-05T02:39:27.568Z,2.50
2023-05-05T02:41:55.643Z,2.40
2023-05-05T02:44:26.369Z,2.80
2023-05-05T02:46:54.560Z,2.80
2023-05-05T02:49:23.172Z,2.40
2023-05-05T02:51:50.793Z,2.40
2023-05-05T02:54:24.597Z,2.00
2023-05-05T02:56:54.097Z,2.80
2023-05-05T02:59:41.944Z,2.40
2023-05-05T03:02:18.912Z,2.30
2023-05-05T03:04:49.032Z,2.40
2023-05-05T03:07:21.201Z,2.40
2023-05-05T03:09:55.009Z,3.00
2023-05-05T03:12:26.353Z,2.80
2023-05-05T03:15:01.574Z,2.40
2023-05-05T03:17:31.017Z,2.60
2023-05-05T03:19:58.069Z,2.40
2023-05-05T03:22:27.865Z,3.00
2023-05-05T03:24:55.307Z,2.50
2023-05-05T03:27:23.794Z,3.20
2023-05-05T03:29:50.990Z,3.60
2023-05-05T03:32:18.290Z,3.90
2023-05-05T03:34:45.964Z,4.10
2023-05-05T03:37:12.997Z,4.30
2023-05-05T03:39:40.871Z,3.40
2023-05-05T03:42:08.203Z,3.50
2023-05-05T03:44:35.788Z,3.10
2023-05-05T03:47:02.830Z,3.50
2023-05-05T03:49:30.898Z,3.80
2023-05-05T03:51:57.945Z,3.90
2023-05-05T03:54:24.994Z,3.40
2023-05-05T03:56:52.149Z,2.90
2023-05-05T03:59:18.914Z,3.20
2023-05-05T04:01:46.971Z,3.30
2023-05-05T04:04:13.856Z,3.50
2023-05-05T04:06:41.053Z,2.90
2023-05-05T04:09:08.515Z,3.10
2023-05-05T04:11:35.771Z,3.00
2023-05-05T04:14:02.808Z,2.90
2023-05-05T04:16:31.379Z,2.80
2023-05-05T04:18:58.965Z,2.60
2023-05-05T04:21:26.011Z,2.50
2023-05-05T04:23:53.260Z,2.30
2023-05-05T04:26:21.322Z,3.00
2023-05-05T04:28:48.984Z,3.30
2023-05-05T04:31:16.400Z,2.80
2023-05-05T04:33:43.490Z,3.20
2023-05-05T04:36:10.945Z,4.10
2023-05-05T04:38:38.019Z,3.90
2023-05-05T04:41:08.921Z,3.90
2023-05-05T04:43:36.688Z,3.80
2023-05-05T04:46:03.888Z,4.00
2023-05-05T04:48:32.773Z,4.40
2023-05-05T04:51:04.895Z,4.70
2023-05-05T04:53:32.047Z,4.60
2023-05-05T04:56:00.198Z,5.60
2023-05-05T04:58:27.683Z,6.40
2023-05-05T05:00:55.339Z,6.00
2023-05-05T05:03:22.282Z,6.80
2023-05-05T05:05:49.641Z,4.80
2023-05-05T05:08:17.527Z,5.10
2023-05-05T05:10:44.818Z,5.70
2023-05-05T05:13:12.936Z,5.60
2023-05-05T05:15:40.899Z,5.00
2023-05-05T05:18:07.956Z,4.60
2023-05-05T05:20:35.004Z,5.60
2023-05-05T05:23:02.659Z,6.10
2023-05-05T05:25:30.493Z,5.30
2023-05-05T05:28:08.733Z,5.00
2023-05-05T05:30:38.154Z,5.10
2023-05-05T05:33:06.086Z,4.30
2023-05-05T05:35:32.954Z,5.40
2023-05-05T05:37:59.928Z,4.70
2023-05-05T05:40:26.939Z,4.60
2023-05-05T05:42:53.787Z,5.00
2023-05-05T05:45:22.054Z,4.40
2023-05-05T05:47:49.731Z,4.70
2023-05-05T05:50:16.764Z,4.70
2023-05-05T05:52:43.813Z,5.20
2023-05-05T05:55:11.238Z,4.50
2023-05-05T05:57:38.723Z,5.00
2023-05-05T06:00:07.216Z,4.60
2023-05-05T06:02:38.823Z,5.10
2023-05-05T06:05:07.040Z,5.20
2023-05-05T06:07:34.285Z,5.50
2023-05-05T06:10:10.874Z,4.50
2023-05-05T06:12:46.784Z,5.30
2023-05-05T06:15:13.566Z,5.10
2023-05-05T06:17:40.851Z,5.30
2023-05-05T06:20:08.407Z,5.40
2023-05-05T06:22:35.319Z,4.50
2023-05-05T06:25:07.110Z,5.10
2023-05-05T06:27:34.256Z,5.80
2023-05-05T06:30:01.495Z,4.80
2023-05-05T06:32:31.036Z,5.70
2023-05-05T06:34:57.802Z,4.90
2023-05-05T06:37:24.654Z,5.40
2023-05-05T06:39:51.504Z,5.40
2023-05-05T06:42:18.356Z,5.80
2023-05-05T06:44:46.005Z,5.90
2023-05-05T06:47:13.511Z,6.40
2023-05-05T06:49:40.308Z,5.20
2023-05-05T06:52:08.580Z,5.50
2023-05-05T06:54:35.626Z,5.70
2023-05-05T06:57:02.895Z,5.70
2023-05-05T06:59:29.925Z,5.30
2023-05-05T07:01:56.771Z,4.80
2023-05-05T07:04:23.625Z,5.20
2023-05-05T07:06:50.432Z,4.90
2023-05-05T07:09:17.606Z,5.60
2023-05-05T07:11:44.754Z,5.30
2023-05-05T07:14:11.595Z,5.00
2023-05-05T07:16:39.289Z,4.60
2023-05-05T07:19:06.441Z,4.90
2023-05-05T07:21:36.821Z,4.70
2023-05-05T07:24:04.192Z,4.80
2023-05-05T07:26:31.145Z,4.50
2023-05-05T07:28:59.188Z,4.10
2023-05-05T07:31:26.609Z,6.00
2023-05-05T07:33:53.845Z,14.20
2023-05-05T07:36:20.717Z,7.40
2023-05-05T07:38:47.631Z,5.40
2023-05-05T07:41:14.644Z,4.20
2023-05-05T07:43:44.218Z,3.50
2023-05-05T07:46:12.445Z,4.20
2023-05-05T07:48:41.851Z,3.80
2023-05-05T07:51:09.420Z,3.60
2023-05-05T07:53:36.430Z,4.10
2023-05-05T07:56:03.512Z,3.80
2023-05-05T07:58:30.734Z,3.80
2023-05-05T08:00:57.578Z,3.40
2023-05-05T08:03:25.144Z,4.20
2023-05-05T08:05:53.943Z,4.40
2023-05-05T08:08:25.057Z,3.40
2023-05-05T08:10:53.560Z,4.10
2023-05-05T08:13:20.672Z,3.40
2023-05-05T08:15:47.933Z,3.60
2023-05-05T08:18:15.102Z,4.50
2023-05-05T08:20:41.966Z,3.40
2023-05-05T08:23:08.904Z,3.10
2023-05-05T08:25:36.263Z,3.90
2023-05-05T08:28:03.291Z,4.10
2023-05-05T08:30:30.334Z,4.80
2023-05-05T08:32:57.775Z,5.20
2023-05-05T08:35:25.048Z,4.70
2023-05-05T08:37:52.198Z,4.40
2023-05-05T08:40:21.374Z,5.10
2023-05-05T08:42:48.542Z,4.30
2023-05-05T08:45:16.101Z,5.20
2023-05-05T08:47:43.684Z,4.00
2023-05-05T08:50:11.625Z,4.00
2023-05-05T08:52:44.503Z,3.50
2023-05-05T08:55:26.528Z,4.00
2023-05-05T08:57:56.764Z,3.90
2023-05-05T09:00:24.308Z,4.70
2023-05-05T09:02:51.557Z,5.10
2023-05-05T09:05:18.611Z,5.20
2023-05-05T09:07:47.435Z,3.90
2023-05-05T09:10:14.531Z,3.80
2023-05-05T09:12:41.883Z,3.90
2023-05-05T09:15:14.456Z,3.40
2023-05-05T09:17:41.868Z,3.30
2023-05-05T09:20:09.903Z,3.20
2023-05-05T09:22:40.972Z,2.80
2023-05-05T09:25:10.119Z,3.40
2023-05-05T09:27:37.839Z,4.20
2023-05-05T09:30:08.929Z,3.10
2023-05-05T09:32:49.660Z,3.70
2023-05-05T09:35:17.148Z,3.60
2023-05-05T09:37:44.014Z,4.10
2023-05-05T09:40:11.763Z,3.20
2023-05-05T09:42:39.198Z,3.90
2023-05-05T09:45:18.208Z,3.50
2023-05-05T09:47:48.527Z,3.10
2023-05-05T09:50:18.695Z,3.30
2023-05-05T09:52:59.940Z,2.90
2023-05-05T09:55:27.224Z,3.00
2023-05-05T09:57:54.265Z,3.00
2023-05-05T10:00:21.221Z,2.80
2023-05-05T10:02:48.187Z,3.30
2023-05-05T10:05:16.364Z,4.40
2023-05-05T10:07:44.678Z,3.50
2023-05-05T10:10:13.616Z,2.90
2023-05-05T10:12:41.297Z,3.10
2023-05-05T10:15:09.328Z,2.90
2023-05-05T10:17:37.445Z,3.00
2023-05-05T10:20:04.748Z,2.90
2023-05-05T10:22:34.496Z,2.60
2023-05-05T10:25:09.954Z,2.80
2023-05-05T10:27:44.814Z,2.80
2023-05-05T10:30:17.092Z,2.70
2023-05-05T10:35:22.409Z,2.30
2023-05-05T10:37:49.353Z,3.20
2023-05-05T10:40:17.761Z,3.10
2023-05-05T10:42:45.100Z,3.00
2023-05-05T10:45:12.035Z,2.60
2023-05-05T10:47:40.497Z,2.70
2023-05-05T10:50:13.459Z,2.90
2023-05-05T10:52:40.215Z,2.70
2023-05-05T10:55:15.608Z,2.50
2023-05-05T10:57:43.960Z,2.60
2023-05-05T11:00:11.409Z,2.80
2023-05-05T11:02:40.241Z,2.70
2023-05-05T11:05:23.991Z,2.50
2023-05-05T11:07:51.819Z,2.90
2023-05-05T11:10:23.462Z,2.30
2023-05-05T11:13:10.687Z,2.40
2023-05-05T11:15:38.214Z,2.90
2023-05-05T11:18:07.806Z,2.80
2023-05-05T11:20:35.193Z,2.00
2023-05-05T11:23:05.275Z,3.30
2023-05-05T11:25:36.264Z,2.10
2023-05-05T11:28:13.717Z,2.00
2023-05-05T11:30:59.811Z,2.10
2023-05-05T11:33:30.399Z,2.60
2023-05-05T11:35:58.314Z,2.70
2023-05-05T11:38:31.804Z,2.20
2023-05-05T11:41:01.635Z,2.10
2023-05-05T11:43:28.436Z,2.50
2023-05-05T11:46:30.924Z,2.30
2023-05-05T11:48:57.888Z,1.80
2023-05-05T11:51:25.749Z,1.90
2023-05-05T11:53:53.013Z,1.90
2023-05-05T11:56:22.093Z,1.90
2023-05-05T11:58:49.583Z,1.80
2023-05-05T12:01:17.009Z,2.30
2023-05-05T12:03:45.992Z,2.00
2023-05-05T12:06:13.363Z,2.90
2023-05-05T12:08:40.765Z,2.20
2023-05-05T12:11:08.653Z,2.30
2023-05-05T12:13:35.757Z,2.10
2023-05-05T12:16:13.078Z,2.10
2023-05-05T12:18:40.893Z,2.00
2023-05-05T12:21:17.556Z,2.50
2023-05-05T12:23:44.610Z,2.10
2023-05-05T12:26:30.493Z,2.00
2023-05-05T12:29:00.604Z,2.10
2023-05-05T12:31:36.494Z,2.00
2023-05-05T12:34:04.143Z,2.20
2023-05-05T12:36:31.579Z,1.70
2023-05-05T12:38:58.449Z,1.80
2023-05-05T12:41:25.579Z,2.00
2023-05-05T12:43:57.228Z,1.90
2023-05-05T12:46:24.708Z,2.20
2023-05-05T12:49:02.181Z,2.20
2023-05-05T12:51:29.023Z,2.20
2023-05-05T12:54:03.653Z,2.10
2023-05-05T12:56:31.535Z,2.40
2023-05-05T12:58:58.499Z,2.20
2023-05-05T13:01:25.377Z,2.40
2023-05-05T13:04:11.685Z,1.80
2023-05-05T13:06:42.774Z,2.30
2023-05-05T13:09:10.505Z,2.20
2023-05-05T13:11:38.151Z,2.80
2023-05-05T13:14:05.424Z,2.80
2023-05-05T13:16:32.671Z,2.30
2023-05-05T13:18:59.485Z,2.50
2023-05-05T13:21:26.357Z,2.40
2023-05-05T13:23:53.424Z,2.20
2023-05-05T13:26:21.679Z,2.40
2023-05-05T13:28:54.665Z,2.20
2023-05-05T13:31:21.774Z,2.20
2023-05-05T13:33:48.758Z,2.30
2023-05-05T13:36:15.602Z,2.10
2023-05-05T13:38:42.409Z,2.60
2023-05-05T13:41:09.306Z,2.50
2023-05-05T13:43:36.333Z,3.00
2023-05-05T13:46:18.619Z,2.50
2023-05-05T13:48:47.653Z,2.90
2023-05-05T13:51:16.336Z,2.40
2023-05-05T13:53:46.853Z,2.70
2023-05-05T13:56:14.302Z,3.10
2023-05-05T13:58:41.562Z,3.40
2023-05-05T14:01:08.634Z,3.20
2023-05-05T14:03:35.673Z,2.70
2023-05-05T14:06:02.706Z,2.30
2023-05-05T14:08:29.549Z,2.90
2023-05-05T14:10:56.384Z,3.70
2023-05-05T14:13:23.223Z,2.60
2023-05-05T14:15:50.886Z,2.10
2023-05-05T14:18:17.734Z,2.70
2023-05-05T14:20:44.573Z,2.20
2023-05-05T14:23:11.413Z,2.50
2023-05-05T14:25:38.675Z,2.30
2023-05-05T14:28:05.564Z,3.00
2023-05-05T14:30:32.347Z,2.30
2023-05-05T14:32:59.189Z,2.10
2023-05-05T14:35:25.974Z,2.00
2023-05-05T14:37:52.711Z,2.30
2023-05-05T14:40:19.459Z,2.20
2023-05-05T14:42:46.268Z,2.50
2023-05-05T14:45:13.073Z,2.00
2023-05-05T14:47:39.993Z,1.80
2023-05-05T14:50:09.959Z,1.90
2023-05-05T14:52:39.247Z,2.20
2023-05-05T14:55:06.808Z,1.90
2023-05-05T14:57:33.722Z,1.80
2023-05-05T15:00:00.546Z,2.30
2023-05-05T15:02:27.438Z,2.10
2023-05-05T15:04:54.354Z,1.60
2023-05-05T15:07:22.780Z,2.20
2023-05-05T15:09:49.608Z,2.30
2023-05-05T15:12:16.364Z,2.10
2023-05-05T15:14:43.095Z,2.20
2023-05-05T15:17:09.933Z,1.90
2023-05-05T15:19:36.995Z,2.00
2023-05-05T15:22:03.830Z,1.60
2023-05-05T15:24:30.661Z,1.60
2023-05-05T15:26:57.507Z,1.60
2023-05-05T15:29:24.352Z,1.50
2023-05-05T15:31:51.228Z,1.70
2023-05-05T15:34:18.236Z,1.60
2023-05-05T15:36:45.078Z,1.50
2023-05-05T15:39:11.925Z,1.70
2023-05-05T15:41:38.764Z,1.50
2023-05-05T15:44:06.015Z,1.40
2023-05-05T15:46:35.992Z,1.70
2023-05-05T15:49:02.858Z,1.20
2023-05-05T15:51:29.716Z,1.20
2023-05-05T15:53:56.667Z,1.40
2023-05-05T15:56:24.118Z,1.40
2023-05-05T15:58:50.881Z,1.30
2023-05-05T16:01:17.846Z,1.50
2023-05-05T16:03:44.920Z,1.60
2023-05-05T16:06:12.718Z,1.60
2023-05-05T16:08:39.769Z,1.20
2023-05-05T16:11:07.021Z,0.90
2023-05-05T16:13:33.860Z,1.20
2023-05-05T16:16:00.646Z,1.10
2023-05-05T16:18:27.546Z,1.20
2023-05-05T16:20:54.797Z,1.30
2023-05-05T16:23:21.843Z,1.70
2023-05-05T16:25:48.686Z,1.40
2023-05-05T16:28:15.532Z,1.30
2023-05-05T16:30:43.394Z,1.40
2023-05-05T16:33:10.581Z,1.00
2023-05-05T16:35:37.709Z,1.30
2023-05-05T16:38:04.539Z,1.20
2023-05-05T16:40:31.585Z,1.20
2023-05-05T16:42:58.425Z,1.20
2023-05-05T16:45:25.482Z,1.50
2023-05-05T16:47:52.834Z,1.20
2023-05-05T16:50:19.976Z,1.30
2023-05-05T16:52:47.023Z,1.10
2023-05-05T16:55:14.276Z,1.00
2023-05-05T16:57:41.126Z,1.10
2023-05-05T17:00:09.603Z,1.50
2023-05-05T17:02:36.902Z,2.20
2023-05-05T17:05:04.343Z,1.50
2023-05-05T17:07:31.355Z,1.80
2023-05-05T17:09:58.217Z,1.30
2023-05-05T17:12:25.246Z,1.60
2023-05-05T17:14:52.088Z,1.70
2023-05-05T17:17:19.160Z,1.70
2023-05-05T17:19:46.181Z,2.30
2023-05-05T17:22:13.053Z,2.50
2023-05-05T17:24:40.072Z,1.40
2023-05-05T17:27:07.118Z,1.90
2023-05-05T17:29:37.039Z,1.50
2023-05-05T17:32:04.400Z,3.20
2023-05-05T17:34:31.538Z,3.80
2023-05-05T17:36:58.381Z,4.20
2023-05-05T17:39:25.464Z,3.50
2023-05-05T17:41:52.477Z,4.50
2023-05-05T17:44:19.341Z,5.60
2023-05-05T17:46:46.576Z,4.70
2023-05-05T17:49:13.442Z,2.60
2023-05-05T17:51:40.462Z,3.20
2023-05-05T17:54:07.302Z,2.20
2023-05-05T17:56:36.152Z,2.60
2023-05-05T17:59:03.036Z,2.40
2023-05-05T18:01:29.927Z,2.00
2023-05-05T18:03:57.335Z,1.70
2023-05-05T18:06:24.191Z,2.10
2023-05-05T18:08:51.228Z,2.20
2023-05-05T18:11:19.505Z,2.50
2023-05-05T18:13:46.348Z,2.50
2023-05-05T18:16:13.221Z,2.20
2023-05-05T18:18:41.541Z,2.20
2023-05-05T18:21:12.431Z,2.30
2023-05-05T18:23:40.278Z,2.70
2023-05-05T18:26:07.527Z,2.60
2023-05-05T18:28:34.377Z,3.10
2023-05-05T18:31:01.458Z,2.80
2023-05-05T18:33:28.238Z,2.50
2023-05-05T18:35:55.527Z,2.60
2023-05-05T18:38:22.757Z,2.80
2023-05-05T18:40:49.601Z,2.00
2023-05-05T18:43:16.646Z,2.80
2023-05-05T18:45:43.520Z,2.70
2023-05-05T18:48:10.563Z,3.20
2023-05-05T18:50:37.586Z,3.80
2023-05-05T18:53:04.841Z,3.50
2023-05-05T18:55:31.688Z,3.70
2023-05-05T18:57:58.555Z,3.60
2023-05-05T19:00:25.475Z,3.50
2023-05-05T19:02:52.501Z,3.70
2023-05-05T19:05:19.663Z,3.50
2023-05-05T19:07:46.711Z,4.40
2023-05-05T19:10:13.961Z,5.60
2023-05-05T19:12:41.101Z,4.90
2023-05-05T19:15:08.620Z,4.60
2023-05-05T19:17:35.997Z,4.70
2023-05-05T19:20:03.582Z,5.10
2023-05-05T19:22:30.431Z,4.70
2023-05-05T19:24:57.267Z,4.90
2023-05-05T19:27:24.107Z,4.90
2023-05-05T19:29:52.843Z,4.90
2023-05-05T19:32:22.045Z,4.70
2023-05-05T19:34:49.345Z,4.90
2023-05-05T19:37:16.627Z,5.60
2023-05-05T19:39:45.919Z,6.40
2023-05-05T19:42:12.751Z,6.40
2023-05-05T19:44:39.586Z,8.00
2023-05-05T19:47:07.209Z,7.50
2023-05-05T19:49:34.291Z,7.00
2023-05-05T19:52:01.123Z,6.60
2023-05-05T19:54:28.593Z,8.10
2023-05-05T19:56:57.405Z,7.60
2023-05-05T19:59:24.732Z,7.20
2023-05-05T20:01:51.778Z,8.00
2023-05-05T20:04:19.060Z,7.10
2023-05-05T20:06:46.488Z,6.80
2023-05-05T20:09:13.342Z,5.90
2023-05-05T20:11:40.185Z,5.80
2023-05-05T20:14:07.062Z,6.50
2023-05-05T20:16:34.346Z,6.60
2023-05-05T20:19:01.326Z,8.00
2023-05-05T20:21:29.391Z,5.90
2023-05-05T20:23:56.436Z,5.10
2023-05-05T20:26:24.779Z,4.90
2023-05-05T20:28:51.973Z,4.80
2023-05-05T20:31:18.895Z,5.10
2023-05-05T20:33:46.065Z,4.30
2023-05-05T20:36:13.109Z,3.50
2023-05-05T20:38:40.154Z,3.50
2023-05-05T20:41:07.016Z,4.90
2023-05-05T20:43:34.456Z,5.10
2023-05-05T20:46:01.708Z,6.10
2023-05-05T20:48:29.164Z,5.50
2023-05-05T20:50:56.228Z,5.20
2023-05-05T20:53:25.501Z,4.70
2023-05-05T20:55:52.372Z,5.10
2023-05-05T20:58:19.200Z,4.60
2023-05-05T21:00:46.278Z,5.20
2023-05-05T21:03:13.361Z,5.40
2023-05-05T21:05:41.369Z,5.10
2023-05-05T21:08:08.201Z,5.20
2023-05-05T21:10:35.657Z,4.90
2023-05-05T21:13:03.079Z,5.00
2023-05-05T21:15:30.582Z,5.30
2023-05-05T21:17:57.694Z,4.70
2023-05-05T21:20:24.679Z,4.30
2023-05-05T21:22:51.732Z,4.90
2023-05-05T21:25:19.993Z,4.30
2023-05-05T21:27:47.177Z,3.70
2023-05-05T21:30:14.812Z,4.30
2023-05-05T21:32:42.342Z,3.60
2023-05-05T21:35:09.635Z,3.70
2023-05-05T21:37:40.101Z,4.10
2023-05-05T21:40:11.246Z,4.40
2023-05-05T21:42:38.317Z,4.20
2023-05-05T21:45:05.598Z,3.90
2023-05-05T21:47:32.451Z,4.00
2023-05-05T21:49:59.530Z,4.10
2023-05-05T21:52:26.936Z,4.30
2023-05-05T21:54:53.989Z,4.00
2023-05-05T21:57:20.843Z,4.20
2023-05-05T21:59:47.720Z,3.90
2023-05-05T22:02:14.483Z,3.80
2023-05-05T22:04:41.265Z,4.20
2023-05-05T22:07:08.197Z,3.70
2023-05-05T22:09:34.964Z,4.30
2023-05-05T22:12:02.731Z,4.00
2023-05-05T22:14:29.751Z,3.90
2023-05-05T22:16:56.807Z,3.50
2023-05-05T22:19:23.640Z,4.10
2023-05-05T22:21:50.382Z,3.90
2023-05-05T22:24:17.330Z,3.60
2023-05-05T22:26:44.175Z,3.90
2023-05-05T22:29:11.821Z,3.80
2023-05-05T22:31:38.908Z,3.90
2023-05-05T22:34:05.757Z,4.10
2023-05-05T22:36:32.762Z,3.70
2023-05-05T22:38:59.599Z,4.50
2023-05-05T22:41:26.444Z,3.60
2023-05-05T22:43:53.285Z,4.00
2023-05-05T22:46:20.366Z,3.50
2023-05-05T22:48:47.383Z,3.70
2023-05-05T22:51:14.195Z,4.40
2023-05-05T22:53:41.076Z,3.50
2023-05-05T22:56:07.937Z,4.00
2023-05-05T22:58:34.750Z,3.90
2023-05-05T23:01:01.680Z,4.90
2023-05-05T23:03:28.639Z,4.20
2023-05-05T23:05:55.517Z,4.30
2023-05-05T23:08:24.372Z,3.60
2023-05-05T23:10:51.216Z,3.80
2023-05-05T23:13:18.112Z,4.10
2023-05-05T23:15:45.036Z,3.70
2023-05-05T23:18:11.952Z,4.30
2023-05-05T23:20:38.791Z,3.70
2023-05-05T23:23:05.605Z,3.60
2023-05-05T23:25:32.491Z,3.00
2023-05-05T23:27:59.729Z,3.20
2023-05-05T23:30:26.505Z,3.30
2023-05-05T23:32:53.488Z,3.50
2023-05-05T23:35:20.462Z,3.60
2023-05-05T23:37:47.306Z,3.60
2023-05-05T23:40:14.057Z,3.90
2023-05-05T23:42:40.847Z,3.60
2023-05-05T23:45:08.546Z,3.50
2023-05-05T23:47:35.615Z,4.00
2023-05-05T23:50:02.757Z,3.70
2023-05-05T23:52:29.590Z,4.10
2023-05-05T23:54:56.645Z,3.70
2023-05-05T23:57:23.470Z,3.40
2023-05-05T23:59:50.196Z,3.40
